sensor_id;sensor_type;location;lat;lon;timestamp;temperature;humidity
3208;DHT22;1616;52.394;9.756;2023-04-03T00:02:17;2.50;1.00
3208;DHT22;1616;52.394;9.756;2023-04-03T00:04:43;2.50;1.00
3208;DHT22;1616;52.394;9.756;2023-04-03T00:07:08;2.40;1.00
3208;DHT22;1616;52.394;9.756;2023-04-03T00:09:34;2.40;1.00
3208;DHT22;1616;52.394;9.756;2023-04-03T00:12:00;2.40;1.00
3208;DHT22;1616;52.394;9.756;2023-04-03T00:14:25;2.30;1.00
3208;DHT22;1616;52.394;9.756;2023-04-03T00:16:53;2.30;1.00
3208;DHT22;1616;52.394;9.756;2023-04-03T00:19:18;2.30;1.00
3208;DHT22;1616;52.394;9.756;2023-04-03T00:21:45;2.20;1.00
3208;DHT22;1616;52.394;9.756;2023-04-03T00:24:11;2.20;1.00
3208;DHT22;1616;52.394;9.756;2023-04-03T00:26:36;2.20;1.00
3208;DHT22;1616;52.394;9.756;2023-04-03T00:29:03;2.20;1.00
3208;DHT22;1616;52.394;9.756;2023-04-03T00:31:28;2.10;1.00
3208;DHT22;1616;52.394;9.756;2023-04-03T00:33:54;2.10;1.00
3208;DHT22;1616;52.394;9.756;2023-04-03T00:36:20;2.00;1.00
3208;DHT22;1616;52.394;9.756;2023-04-03T00:38:45;2.00;1.00
3208;DHT22;1616;52.394;9.756;2023-04-03T00:41:11;2.00;1.00
3208;DHT22;1616;52.394;9.756;2023-04-03T00:43:37;1.90;1.00
3208;DHT22;1616;52.394;9.756;2023-04-03T00:46:03;1.90;1.00
3208;DHT22;1616;52.394;9.756;2023-04-03T00:48:32;1.90;1.00
3208;DHT22;1616;52.394;9.756;2023-04-03T00:51:00;1.80;1.00
3208;DHT22;1616;52.394;9.756;2023-04-03T00:53:35;1.80;1.00
3208;DHT22;1616;52.394;9.756;2023-04-03T00:56:06;1.70;1.00
3208;DHT22;1616;52.394;9.756;2023-04-03T00:58:40;1.70;1.00
3208;DHT22;1616;52.394;9.756;2023-04-03T01:01:11;1.70;1.00
3208;DHT22;1616;52.394;9.756;2023-04-03T01:03:37;1.70;1.00
3208;DHT22;1616;52.394;9.756;2023-04-03T01:06:03;1.60;1.00
3208;DHT22;1616;52.394;9.756;2023-04-03T01:08:30;1.60;1.00
3208;DHT22;1616;52.394;9.756;2023-04-03T01:10:55;1.60;1.00
3208;DHT22;1616;52.394;9.756;2023-04-03T01:13:31;1.50;1.00
3208;DHT22;1616;52.394;9.756;2023-04-03T01:16:01;1.60;1.00
3208;DHT22;1616;52.394;9.756;2023-04-03T01:18:28;1.50;1.00
3208;DHT22;1616;52.394;9.756;2023-04-03T01:21:26;1.50;1.00
3208;DHT22;1616;52.394;9.756;2023-04-03T01:26:28;1.40;1.00
3208;DHT22;1616;52.394;9.756;2023-04-03T01:28:54;1.40;1.00
3208;DHT22;1616;52.394;9.756;2023-04-03T01:31:31;1.40;1.00
3208;DHT22;1616;52.394;9.756;2023-04-03T01:33:58;1.40;1.00
3208;DHT22;1616;52.394;9.756;2023-04-03T01:36:27;1.30;1.00
3208;DHT22;1616;52.394;9.756;2023-04-03T01:38:54;1.40;1.00
3208;DHT22;1616;52.394;9.756;2023-04-03T01:41:20;1.20;1.00
3208;DHT22;1616;52.394;9.756;2023-04-03T01:43:47;1.40;1.00
3208;DHT22;1616;52.394;9.756;2023-04-03T01:46:13;1.30;1.00
3208;DHT22;1616;52.394;9.756;2023-04-03T01:48:39;1.30;1.00
3208;DHT22;1616;52.394;9.756;2023-04-03T01:51:05;1.30;1.00
3208;DHT22;1616;52.394;9.756;2023-04-03T01:53:30;1.20;1.00
3208;DHT22;1616;52.394;9.756;2023-04-03T01:55:56;1.20;1.00
3208;DHT22;1616;52.394;9.756;2023-04-03T01:58:22;1.20;1.00
3208;DHT22;1616;52.394;9.756;2023-04-03T02:00:48;1.20;1.00
3208;DHT22;1616;52.394;9.756;2023-04-03T02:03:13;1.00;1.00
3208;DHT22;1616;52.394;9.756;2023-04-03T02:05:39;1.10;1.00
3208;DHT22;1616;52.394;9.756;2023-04-03T02:08:05;1.00;1.00
3208;DHT22;1616;52.394;9.756;2023-04-03T02:10:31;0.90;1.00
3208;DHT22;1616;52.394;9.756;2023-04-03T02:12:56;0.80;1.00
3208;DHT22;1616;52.394;9.756;2023-04-03T02:15:22;1.00;1.00
3208;DHT22;1616;52.394;9.756;2023-04-03T02:17:47;0.90;1.00
3208;DHT22;1616;52.394;9.756;2023-04-03T02:20:13;0.80;1.00
3208;DHT22;1616;52.394;9.756;2023-04-03T02:22:40;0.80;1.00
3208;DHT22;1616;52.394;9.756;2023-04-03T02:25:06;0.80;1.00
3208;DHT22;1616;52.394;9.756;2023-04-03T02:27:32;0.70;1.00
3208;DHT22;1616;52.394;9.756;2023-04-03T02:29:57;0.70;1.00
3208;DHT22;1616;52.394;9.756;2023-04-03T02:32:23;0.60;1.00
3208;DHT22;1616;52.394;9.756;2023-04-03T02:34:49;0.60;1.00
3208;DHT22;1616;52.394;9.756;2023-04-03T02:37:15;0.60;1.00
3208;DHT22;1616;52.394;9.756;2023-04-03T02:39:41;0.50;1.00
3208;DHT22;1616;52.394;9.756;2023-04-03T02:42:06;0.50;1.00
3208;DHT22;1616;52.394;9.756;2023-04-03T02:44:32;0.50;1.00
3208;DHT22;1616;52.394;9.756;2023-04-03T02:46:58;0.50;1.00
3208;DHT22;1616;52.394;9.756;2023-04-03T02:49:24;0.30;1.00
3208;DHT22;1616;52.394;9.756;2023-04-03T02:51:49;0.40;1.00
3208;DHT22;1616;52.394;9.756;2023-04-03T02:54:16;0.30;1.00
3208;DHT22;1616;52.394;9.756;2023-04-03T02:56:42;0.30;1.00
3208;DHT22;1616;52.394;9.756;2023-04-03T02:59:08;0.20;1.00
3208;DHT22;1616;52.394;9.756;2023-04-03T03:01:33;0.20;1.00
3208;DHT22;1616;52.394;9.756;2023-04-03T03:03:59;0.20;1.00
3208;DHT22;1616;52.394;9.756;2023-04-03T03:06:26;0.20;1.00
3208;DHT22;1616;52.394;9.756;2023-04-03T03:08:51;0.10;1.00
3208;DHT22;1616;52.394;9.756;2023-04-03T03:11:17;0.00;1.00
3208;DHT22;1616;52.394;9.756;2023-04-03T03:13:43;0.10;1.00
3208;DHT22;1616;52.394;9.756;2023-04-03T03:16:08;0.10;1.00
3208;DHT22;1616;52.394;9.756;2023-04-03T03:18:35;0.00;1.00
3208;DHT22;1616;52.394;9.756;2023-04-03T03:21:02;0.00;1.00
3208;DHT22;1616;52.394;9.756;2023-04-03T03:23:29;0.10;1.00
3208;DHT22;1616;52.394;9.756;2023-04-03T03:25:58;0.10;1.00
3208;DHT22;1616;52.394;9.756;2023-04-03T03:28:24;0.10;1.00
3208;DHT22;1616;52.394;9.756;2023-04-03T03:30:50;0.10;1.00
3208;DHT22;1616;52.394;9.756;2023-04-03T03:33:17;0.10;1.00
3208;DHT22;1616;52.394;9.756;2023-04-03T03:35:42;0.10;1.00
3208;DHT22;1616;52.394;9.756;2023-04-03T03:38:08;0.10;1.00
3208;DHT22;1616;52.394;9.756;2023-04-03T03:40:34;0.00;1.00
3208;DHT22;1616;52.394;9.756;2023-04-03T03:43:00;0.10;1.00
3208;DHT22;1616;52.394;9.756;2023-04-03T03:45:25;0.00;1.00
3208;DHT22;1616;52.394;9.756;2023-04-03T03:47:51;0.10;1.00
3208;DHT22;1616;52.394;9.756;2023-04-03T03:50:17;0.00;1.00
3208;DHT22;1616;52.394;9.756;2023-04-03T03:52:42;0.00;1.00
3208;DHT22;1616;52.394;9.756;2023-04-03T03:55:08;0.00;1.00
3208;DHT22;1616;52.394;9.756;2023-04-03T03:57:34;0.00;1.00
3208;DHT22;1616;52.394;9.756;2023-04-03T04:00:00;0.00;1.00
3208;DHT22;1616;52.394;9.756;2023-04-03T04:02:26;0.00;1.00
3208;DHT22;1616;52.394;9.756;2023-04-03T04:04:52;-0.10;1.00
3208;DHT22;1616;52.394;9.756;2023-04-03T04:07:17;-0.10;1.00
3208;DHT22;1616;52.394;9.756;2023-04-03T04:09:43;-0.10;1.00
3208;DHT22;1616;52.394;9.756;2023-04-03T04:12:08;-0.10;1.00
3208;DHT22;1616;52.394;9.756;2023-04-03T04:14:34;-0.10;1.00
3208;DHT22;1616;52.394;9.756;2023-04-03T04:16:59;-0.10;1.00
3208;DHT22;1616;52.394;9.756;2023-04-03T04:19:27;-0.10;1.00
3208;DHT22;1616;52.394;9.756;2023-04-03T04:21:53;-0.10;1.00
3208;DHT22;1616;52.394;9.756;2023-04-03T04:24:18;-0.10;1.00
3208;DHT22;1616;52.394;9.756;2023-04-03T04:26:44;-0.10;1.00
3208;DHT22;1616;52.394;9.756;2023-04-03T04:29:10;-0.20;1.00
3208;DHT22;1616;52.394;9.756;2023-04-03T04:31:36;-0.10;1.00
3208;DHT22;1616;52.394;9.756;2023-04-03T04:34:02;-0.10;1.00
3208;DHT22;1616;52.394;9.756;2023-04-03T04:36:27;-0.10;1.00
3208;DHT22;1616;52.394;9.756;2023-04-03T04:38:53;-0.10;1.00
3208;DHT22;1616;52.394;9.756;2023-04-03T04:41:20;0.50;1.00
3208;DHT22;1616;52.394;9.756;2023-04-03T04:43:48;-0.20;1.00
3208;DHT22;1616;52.394;9.756;2023-04-03T04:46:14;-0.30;1.00
3208;DHT22;1616;52.394;9.756;2023-04-03T04:48:40;-0.20;1.00
3208;DHT22;1616;52.394;9.756;2023-04-03T04:51:06;-0.30;1.00
3208;DHT22;1616;52.394;9.756;2023-04-03T04:53:31;-0.20;1.00
3208;DHT22;1616;52.394;9.756;2023-04-03T04:55:57;-0.20;1.00
3208;DHT22;1616;52.394;9.756;2023-04-03T04:58:23;-0.10;1.00
3208;DHT22;1616;52.394;9.756;2023-04-03T05:00:49;-0.10;1.00
3208;DHT22;1616;52.394;9.756;2023-04-03T05:03:15;-0.10;1.00
3208;DHT22;1616;52.394;9.756;2023-04-03T05:05:41;-0.10;1.00
3208;DHT22;1616;52.394;9.756;2023-04-03T05:08:06;-0.10;1.00
3208;DHT22;1616;52.394;9.756;2023-04-03T05:10:33;0.00;1.00
3208;DHT22;1616;52.394;9.756;2023-04-03T05:12:59;0.00;1.00
3208;DHT22;1616;52.394;9.756;2023-04-03T05:15:25;0.10;1.00
3208;DHT22;1616;52.394;9.756;2023-04-03T05:17:52;0.10;1.00
3208;DHT22;1616;52.394;9.756;2023-04-03T05:20:18;0.30;1.00
3208;DHT22;1616;52.394;9.756;2023-04-03T05:22:43;0.60;1.00
3208;DHT22;1616;52.394;9.756;2023-04-03T05:25:09;1.30;1.00
3208;DHT22;1616;52.394;9.756;2023-04-03T05:27:35;2.00;1.00
3208;DHT22;1616;52.394;9.756;2023-04-03T05:30:01;2.80;1.00
3208;DHT22;1616;52.394;9.756;2023-04-03T05:32:27;3.60;1.00
3208;DHT22;1616;52.394;9.756;2023-04-03T05:34:53;4.20;1.00
3208;DHT22;1616;52.394;9.756;2023-04-03T05:37:19;4.90;1.00
3208;DHT22;1616;52.394;9.756;2023-04-03T05:39:45;6.20;1.00
3208;DHT22;1616;52.394;9.756;2023-04-03T05:42:11;6.00;1.00
3208;DHT22;1616;52.394;9.756;2023-04-03T05:44:38;6.60;1.00
3208;DHT22;1616;52.394;9.756;2023-04-03T05:47:04;7.20;1.00
3208;DHT22;1616;52.394;9.756;2023-04-03T05:49:30;7.80;1.00
3208;DHT22;1616;52.394;9.756;2023-04-03T05:51:56;8.40;1.00
3208;DHT22;1616;52.394;9.756;2023-04-03T05:54:27;8.90;1.00
3208;DHT22;1616;52.394;9.756;2023-04-03T05:56:53;9.50;1.00
3208;DHT22;1616;52.394;9.756;2023-04-03T05:59:20;9.70;1.00
3208;DHT22;1616;52.394;9.756;2023-04-03T06:01:47;10.30;1.00
3208;DHT22;1616;52.394;9.756;2023-04-03T06:04:13;10.70;1.00
3208;DHT22;1616;52.394;9.756;2023-04-03T06:06:55;11.10;1.00
3208;DHT22;1616;52.394;9.756;2023-04-03T06:09:23;11.50;1.00
3208;DHT22;1616;52.394;9.756;2023-04-03T06:11:49;11.80;1.00
3208;DHT22;1616;52.394;9.756;2023-04-03T06:14:15;12.00;1.00
3208;DHT22;1616;52.394;9.756;2023-04-03T06:16:40;12.30;1.00
3208;DHT22;1616;52.394;9.756;2023-04-03T06:19:07;12.50;1.00
3208;DHT22;1616;52.394;9.756;2023-04-03T06:21:33;12.90;1.00
3208;DHT22;1616;52.394;9.756;2023-04-03T06:24:02;13.20;1.00
3208;DHT22;1616;52.394;9.756;2023-04-03T06:26:28;13.40;1.00
3208;DHT22;1616;52.394;9.756;2023-04-03T06:28:54;13.60;1.00
3208;DHT22;1616;52.394;9.756;2023-04-03T06:31:19;13.90;1.00
3208;DHT22;1616;52.394;9.756;2023-04-03T06:33:45;14.10;1.00
3208;DHT22;1616;52.394;9.756;2023-04-03T06:36:12;14.20;1.00
3208;DHT22;1616;52.394;9.756;2023-04-03T06:38:37;14.40;1.00
3208;DHT22;1616;52.394;9.756;2023-04-03T06:41:03;14.60;1.00
3208;DHT22;1616;52.394;9.756;2023-04-03T06:43:29;14.70;1.00
3208;DHT22;1616;52.394;9.756;2023-04-03T06:45:56;14.80;1.00
3208;DHT22;1616;52.394;9.756;2023-04-03T06:48:22;14.90;1.00
3208;DHT22;1616;52.394;9.756;2023-04-03T06:50:48;15.20;1.00
3208;DHT22;1616;52.394;9.756;2023-04-03T06:53:14;15.30;1.00
3208;DHT22;1616;52.394;9.756;2023-04-03T06:55:40;15.40;1.00
3208;DHT22;1616;52.394;9.756;2023-04-03T06:58:06;15.60;1.00
3208;DHT22;1616;52.394;9.756;2023-04-03T07:00:33;15.80;1.00
3208;DHT22;1616;52.394;9.756;2023-04-03T07:02:58;15.80;1.00
3208;DHT22;1616;52.394;9.756;2023-04-03T07:05:24;16.00;1.00
3208;DHT22;1616;52.394;9.756;2023-04-03T07:07:50;16.20;1.00
3208;DHT22;1616;52.394;9.756;2023-04-03T07:10:16;16.30;1.00
3208;DHT22;1616;52.394;9.756;2023-04-03T07:12:42;16.40;1.00
3208;DHT22;1616;52.394;9.756;2023-04-03T07:15:09;16.60;1.00
3208;DHT22;1616;52.394;9.756;2023-04-03T07:17:34;16.70;1.00
3208;DHT22;1616;52.394;9.756;2023-04-03T07:20:01;16.90;1.00
3208;DHT22;1616;52.394;9.756;2023-04-03T07:22:27;17.10;1.00
3208;DHT22;1616;52.394;9.756;2023-04-03T07:24:53;17.20;1.00
3208;DHT22;1616;52.394;9.756;2023-04-03T07:27:19;17.20;1.00
3208;DHT22;1616;52.394;9.756;2023-04-03T07:29:45;17.20;1.00
3208;DHT22;1616;52.394;9.756;2023-04-03T07:32:11;17.30;1.00
3208;DHT22;1616;52.394;9.756;2023-04-03T07:34:37;17.50;1.00
3208;DHT22;1616;52.394;9.756;2023-04-03T07:37:02;17.70;1.00
3208;DHT22;1616;52.394;9.756;2023-04-03T07:39:28;17.90;1.00
3208;DHT22;1616;52.394;9.756;2023-04-03T07:41:54;18.00;1.00
3208;DHT22;1616;52.394;9.756;2023-04-03T07:44:23;18.20;1.00
3208;DHT22;1616;52.394;9.756;2023-04-03T07:46:49;18.30;1.00
3208;DHT22;1616;52.394;9.756;2023-04-03T07:49:17;18.50;1.00
3208;DHT22;1616;52.394;9.756;2023-04-03T07:51:44;18.70;1.00
3208;DHT22;1616;52.394;9.756;2023-04-03T07:54:10;18.80;1.00
3208;DHT22;1616;52.394;9.756;2023-04-03T07:56:36;18.80;1.00
3208;DHT22;1616;52.394;9.756;2023-04-03T07:59:02;19.00;1.00
3208;DHT22;1616;52.394;9.756;2023-04-03T08:01:28;19.00;1.00
3208;DHT22;1616;52.394;9.756;2023-04-03T08:03:54;19.00;1.00
3208;DHT22;1616;52.394;9.756;2023-04-03T08:06:19;19.10;1.00
3208;DHT22;1616;52.394;9.756;2023-04-03T08:08:45;19.10;1.00
3208;DHT22;1616;52.394;9.756;2023-04-03T08:11:11;19.20;1.00
3208;DHT22;1616;52.394;9.756;2023-04-03T08:13:37;19.10;1.00
3208;DHT22;1616;52.394;9.756;2023-04-03T08:16:15;19.00;1.00
3208;DHT22;1616;52.394;9.756;2023-04-03T08:18:41;19.20;1.00
3208;DHT22;1616;52.394;9.756;2023-04-03T08:21:09;19.20;1.00
3208;DHT22;1616;52.394;9.756;2023-04-03T08:23:35;19.30;1.00
3208;DHT22;1616;52.394;9.756;2023-04-03T08:26:12;19.20;1.00
3208;DHT22;1616;52.394;9.756;2023-04-03T08:28:38;19.10;1.00
3208;DHT22;1616;52.394;9.756;2023-04-03T08:31:07;19.20;1.00
3208;DHT22;1616;52.394;9.756;2023-04-03T08:33:34;18.80;1.00
3208;DHT22;1616;52.394;9.756;2023-04-03T08:36:02;18.50;1.00
3208;DHT22;1616;52.394;9.756;2023-04-03T08:38:28;18.50;1.00
3208;DHT22;1616;52.394;9.756;2023-04-03T08:41:13;18.60;1.00
3208;DHT22;1616;52.394;9.756;2023-04-03T08:43:58;18.60;1.00
3208;DHT22;1616;52.394;9.756;2023-04-03T08:46:40;18.90;1.00
3208;DHT22;1616;52.394;9.756;2023-04-03T08:49:21;18.80;1.00
3208;DHT22;1616;52.394;9.756;2023-04-03T08:51:49;18.30;1.00
3208;DHT22;1616;52.394;9.756;2023-04-03T08:54:35;17.90;1.00
3208;DHT22;1616;52.394;9.756;2023-04-03T08:57:04;17.60;1.00
3208;DHT22;1616;52.394;9.756;2023-04-03T08:59:36;17.30;1.00
3208;DHT22;1616;52.394;9.756;2023-04-03T09:02:17;16.80;1.00
3208;DHT22;1616;52.394;9.756;2023-04-03T09:04:46;16.30;1.00
3208;DHT22;1616;52.394;9.756;2023-04-03T09:07:18;16.20;1.00
3208;DHT22;1616;52.394;9.756;2023-04-03T09:09:45;16.40;1.00
3208;DHT22;1616;52.394;9.756;2023-04-03T09:12:27;16.70;1.00
3208;DHT22;1616;52.394;9.756;2023-04-03T09:15:16;17.40;1.00
3208;DHT22;1616;52.394;9.756;2023-04-03T09:22:56;19.40;1.00
3208;DHT22;1616;52.394;9.756;2023-04-03T09:25:23;19.80;1.00
3208;DHT22;1616;52.394;9.756;2023-04-03T09:27:51;20.20;1.00
3208;DHT22;1616;52.394;9.756;2023-04-03T09:30:19;20.50;1.00
3208;DHT22;1616;52.394;9.756;2023-04-03T09:32:48;21.00;1.00
3208;DHT22;1616;52.394;9.756;2023-04-03T09:35:19;21.10;1.00
3208;DHT22;1616;52.394;9.756;2023-04-03T09:37:48;21.40;1.00
3208;DHT22;1616;52.394;9.756;2023-04-03T09:42:58;21.60;1.00
3208;DHT22;1616;52.394;9.756;2023-04-03T09:45:34;21.90;1.00
3208;DHT22;1616;52.394;9.756;2023-04-03T09:53:42;19.20;1.00
3208;DHT22;1616;52.394;9.756;2023-04-03T10:06:32;15.40;1.00
3208;DHT22;1616;52.394;9.756;2023-04-03T10:09:04;15.10;1.00
3208;DHT22;1616;52.394;9.756;2023-04-03T10:11:30;14.70;1.00
3208;DHT22;1616;52.394;9.756;2023-04-03T10:13:58;14.60;1.00
3208;DHT22;1616;52.394;9.756;2023-04-03T10:16:41;14.40;1.00
3208;DHT22;1616;52.394;9.756;2023-04-03T10:19:29;14.50;1.00
3208;DHT22;1616;52.394;9.756;2023-04-03T10:22:02;14.70;1.00
3208;DHT22;1616;52.394;9.756;2023-04-03T10:38:59;14.50;1.00
3208;DHT22;1616;52.394;9.756;2023-04-03T10:47:04;13.90;1.00
3208;DHT22;1616;52.394;9.756;2023-04-03T10:49:56;14.40;1.00
3208;DHT22;1616;52.394;9.756;2023-04-03T10:52:39;14.70;1.00
3208;DHT22;1616;52.394;9.756;2023-04-03T10:57:40;14.30;1.00
3208;DHT22;1616;52.394;9.756;2023-04-03T11:02:58;14.50;1.00
3208;DHT22;1616;52.394;9.756;2023-04-03T11:05:47;14.70;1.00
3208;DHT22;1616;52.394;9.756;2023-04-03T11:08:21;14.80;1.00
3208;DHT22;1616;52.394;9.756;2023-04-03T11:10:50;14.70;1.00
3208;DHT22;1616;52.394;9.756;2023-04-03T11:13:32;15.10;1.00
3208;DHT22;1616;52.394;9.756;2023-04-03T11:15:59;15.80;1.00
3208;DHT22;1616;52.394;9.756;2023-04-03T11:21:29;16.60;1.00
3208;DHT22;1616;52.394;9.756;2023-04-03T11:23:57;16.30;1.00
3208;DHT22;1616;52.394;9.756;2023-04-03T11:26:31;15.70;1.00
3208;DHT22;1616;52.394;9.756;2023-04-03T11:29:05;15.30;1.00
3208;DHT22;1616;52.394;9.756;2023-04-03T11:37:00;13.50;1.00
3208;DHT22;1616;52.394;9.756;2023-04-03T11:39:34;13.00;1.00
3208;DHT22;1616;52.394;9.756;2023-04-03T11:42:23;12.60;1.00
3208;DHT22;1616;52.394;9.756;2023-04-03T11:45:23;12.20;1.00
3208;DHT22;1616;52.394;9.756;2023-04-03T11:50:47;11.70;1.00
3208;DHT22;1616;52.394;9.756;2023-04-03T11:58:13;12.00;1.00
3208;DHT22;1616;52.394;9.756;2023-04-03T12:05:56;12.60;1.00
3208;DHT22;1616;52.394;9.756;2023-04-03T12:08:50;12.60;1.00
3208;DHT22;1616;52.394;9.756;2023-04-03T12:11:28;12.50;1.00
3208;DHT22;1616;52.394;9.756;2023-04-03T12:16:34;12.20;1.00
3208;DHT22;1616;52.394;9.756;2023-04-03T12:24:31;11.80;1.00
3208;DHT22;1616;52.394;9.756;2023-04-03T12:37:39;11.90;1.00
3208;DHT22;1616;52.394;9.756;2023-04-03T12:43:12;13.90;1.00
3208;DHT22;1616;52.394;9.756;2023-04-03T12:46:08;14.60;1.00
3208;DHT22;1616;52.394;9.756;2023-04-03T12:48:51;15.40;1.00
3208;DHT22;1616;52.394;9.756;2023-04-03T12:51:37;16.00;1.00
3208;DHT22;1616;52.394;9.756;2023-04-03T12:54:30;16.40;1.00
3208;DHT22;1616;52.394;9.756;2023-04-03T12:57:20;16.90;1.00
3208;DHT22;1616;52.394;9.756;2023-04-03T12:59:47;17.20;1.00
3208;DHT22;1616;52.394;9.756;2023-04-03T13:02:21;17.30;1.00
3208;DHT22;1616;52.394;9.756;2023-04-03T13:04:47;17.20;1.00
3208;DHT22;1616;52.394;9.756;2023-04-03T13:12:34;15.50;1.00
3208;DHT22;1616;52.394;9.756;2023-04-03T13:17:45;14.30;1.00
3208;DHT22;1616;52.394;9.756;2023-04-03T13:23:04;13.30;1.00
3208;DHT22;1616;52.394;9.756;2023-04-03T13:25:34;13.00;1.00
3208;DHT22;1616;52.394;9.756;2023-04-03T13:28:04;12.90;1.00
3208;DHT22;1616;52.394;9.756;2023-04-03T13:30:36;13.00;1.00
3208;DHT22;1616;52.394;9.756;2023-04-03T13:33:05;13.00;1.00
3208;DHT22;1616;52.394;9.756;2023-04-03T13:35:36;12.90;1.00
3208;DHT22;1616;52.394;9.756;2023-04-03T13:38:07;12.60;1.00
3208;DHT22;1616;52.394;9.756;2023-04-03T13:40:56;12.50;1.00
3208;DHT22;1616;52.394;9.756;2023-04-03T13:43:28;12.20;1.00
3208;DHT22;1616;52.394;9.756;2023-04-03T13:46:00;11.90;1.00
3208;DHT22;1616;52.394;9.756;2023-04-03T13:48:38;11.70;1.00
3208;DHT22;1616;52.394;9.756;2023-04-03T13:51:16;11.60;1.00
3208;DHT22;1616;52.394;9.756;2023-04-03T13:53:50;11.50;1.00
3208;DHT22;1616;52.394;9.756;2023-04-03T13:56:34;11.90;1.00
3208;DHT22;1616;52.394;9.756;2023-04-03T14:01:42;12.70;1.00
3208;DHT22;1616;52.394;9.756;2023-04-03T14:04:24;12.90;1.00
3208;DHT22;1616;52.394;9.756;2023-04-03T14:06:50;13.10;1.00
3208;DHT22;1616;52.394;9.756;2023-04-03T14:09:18;13.30;1.00
3208;DHT22;1616;52.394;9.756;2023-04-03T14:11:45;13.40;1.00
3208;DHT22;1616;52.394;9.756;2023-04-03T14:14:20;13.40;1.00
3208;DHT22;1616;52.394;9.756;2023-04-03T14:16:57;13.10;1.00
3208;DHT22;1616;52.394;9.756;2023-04-03T14:19:33;12.90;1.00
3208;DHT22;1616;52.394;9.756;2023-04-03T14:22:00;12.80;1.00
3208;DHT22;1616;52.394;9.756;2023-04-03T14:24:26;12.70;1.00
3208;DHT22;1616;52.394;9.756;2023-04-03T14:26:54;12.60;1.00
3208;DHT22;1616;52.394;9.756;2023-04-03T14:29:21;12.60;1.00
3208;DHT22;1616;52.394;9.756;2023-04-03T14:31:48;12.70;1.00
3208;DHT22;1616;52.394;9.756;2023-04-03T14:34:16;12.70;1.00
3208;DHT22;1616;52.394;9.756;2023-04-03T14:36:43;12.80;1.00
3208;DHT22;1616;52.394;9.756;2023-04-03T14:39:16;12.80;1.00
3208;DHT22;1616;52.394;9.756;2023-04-03T14:41:43;12.70;1.00
3208;DHT22;1616;52.394;9.756;2023-04-03T14:44:08;12.80;1.00
3208;DHT22;1616;52.394;9.756;2023-04-03T14:46:36;12.80;1.00
3208;DHT22;1616;52.394;9.756;2023-04-03T14:49:03;12.90;1.00
3208;DHT22;1616;52.394;9.756;2023-04-03T14:51:33;13.10;1.00
3208;DHT22;1616;52.394;9.756;2023-04-03T14:53:59;13.20;1.00
3208;DHT22;1616;52.394;9.756;2023-04-03T14:56:28;13.30;1.00
3208;DHT22;1616;52.394;9.756;2023-04-03T14:58:59;13.50;1.00
3208;DHT22;1616;52.394;9.756;2023-04-03T15:01:27;13.70;1.00
3208;DHT22;1616;52.394;9.756;2023-04-03T15:03:53;13.80;1.00
3208;DHT22;1616;52.394;9.756;2023-04-03T15:06:19;13.80;1.00
3208;DHT22;1616;52.394;9.756;2023-04-03T15:08:46;13.40;1.00
3208;DHT22;1616;52.394;9.756;2023-04-03T15:11:13;13.00;1.00
3208;DHT22;1616;52.394;9.756;2023-04-03T15:13:39;12.60;1.00
3208;DHT22;1616;52.394;9.756;2023-04-03T15:16:10;12.10;1.00
3208;DHT22;1616;52.394;9.756;2023-04-03T15:18:38;11.60;1.00
3208;DHT22;1616;52.394;9.756;2023-04-03T15:21:04;11.10;1.00
3208;DHT22;1616;52.394;9.756;2023-04-03T15:23:30;10.80;1.00
3208;DHT22;1616;52.394;9.756;2023-04-03T15:25:56;10.60;1.00
3208;DHT22;1616;52.394;9.756;2023-04-03T15:28:26;10.60;1.00
3208;DHT22;1616;52.394;9.756;2023-04-03T15:30:53;10.60;1.00
3208;DHT22;1616;52.394;9.756;2023-04-03T15:33:19;10.60;1.00
3208;DHT22;1616;52.394;9.756;2023-04-03T15:35:45;10.70;1.00
3208;DHT22;1616;52.394;9.756;2023-04-03T15:38:11;10.70;1.00
3208;DHT22;1616;52.394;9.756;2023-04-03T15:40:37;10.70;1.00
3208;DHT22;1616;52.394;9.756;2023-04-03T15:43:03;10.60;1.00
3208;DHT22;1616;52.394;9.756;2023-04-03T15:45:29;10.40;1.00
3208;DHT22;1616;52.394;9.756;2023-04-03T15:47:56;10.20;1.00
3208;DHT22;1616;52.394;9.756;2023-04-03T15:50:22;10.10;1.00
3208;DHT22;1616;52.394;9.756;2023-04-03T15:52:51;9.90;1.00
3208;DHT22;1616;52.394;9.756;2023-04-03T15:55:21;9.60;1.00
3208;DHT22;1616;52.394;9.756;2023-04-03T15:57:47;9.50;1.00
3208;DHT22;1616;52.394;9.756;2023-04-03T16:00:13;9.40;1.00
3208;DHT22;1616;52.394;9.756;2023-04-03T16:02:44;9.30;1.00
3208;DHT22;1616;52.394;9.756;2023-04-03T16:05:19;9.20;1.00
3208;DHT22;1616;52.394;9.756;2023-04-03T16:07:45;9.20;1.00
3208;DHT22;1616;52.394;9.756;2023-04-03T16:10:12;9.10;1.00
3208;DHT22;1616;52.394;9.756;2023-04-03T16:12:38;9.10;1.00
3208;DHT22;1616;52.394;9.756;2023-04-03T16:15:05;9.10;1.00
3208;DHT22;1616;52.394;9.756;2023-04-03T16:17:32;9.10;1.00
3208;DHT22;1616;52.394;9.756;2023-04-03T16:19:58;9.20;1.00
3208;DHT22;1616;52.394;9.756;2023-04-03T16:22:25;9.30;1.00
3208;DHT22;1616;52.394;9.756;2023-04-03T16:24:51;9.40;1.00
3208;DHT22;1616;52.394;9.756;2023-04-03T16:27:17;9.50;1.00
3208;DHT22;1616;52.394;9.756;2023-04-03T16:29:43;9.50;1.00
3208;DHT22;1616;52.394;9.756;2023-04-03T16:32:08;9.40;1.00
3208;DHT22;1616;52.394;9.756;2023-04-03T16:34:34;9.30;1.00
3208;DHT22;1616;52.394;9.756;2023-04-03T16:37:00;9.30;1.00
3208;DHT22;1616;52.394;9.756;2023-04-03T16:39:26;9.10;1.00
3208;DHT22;1616;52.394;9.756;2023-04-03T16:41:52;9.00;1.00
3208;DHT22;1616;52.394;9.756;2023-04-03T16:44:18;8.90;1.00
3208;DHT22;1616;52.394;9.756;2023-04-03T16:46:44;8.70;1.00
3208;DHT22;1616;52.394;9.756;2023-04-03T16:49:09;8.60;1.00
3208;DHT22;1616;52.394;9.756;2023-04-03T16:51:35;8.50;1.00
3208;DHT22;1616;52.394;9.756;2023-04-03T16:54:01;8.30;1.00
3208;DHT22;1616;52.394;9.756;2023-04-03T16:56:27;8.20;1.00
3208;DHT22;1616;52.394;9.756;2023-04-03T16:58:53;8.40;1.00
3208;DHT22;1616;52.394;9.756;2023-04-03T17:01:20;8.30;1.00
3208;DHT22;1616;52.394;9.756;2023-04-03T17:03:46;8.40;1.00
3208;DHT22;1616;52.394;9.756;2023-04-03T17:06:16;8.30;1.00
3208;DHT22;1616;52.394;9.756;2023-04-03T17:08:44;8.40;1.00
3208;DHT22;1616;52.394;9.756;2023-04-03T17:11:10;8.50;1.00
3208;DHT22;1616;52.394;9.756;2023-04-03T17:13:35;8.50;1.00
3208;DHT22;1616;52.394;9.756;2023-04-03T17:16:04;8.40;1.00
3208;DHT22;1616;52.394;9.756;2023-04-03T17:18:31;8.40;1.00
3208;DHT22;1616;52.394;9.756;2023-04-03T17:20:57;8.20;1.00
3208;DHT22;1616;52.394;9.756;2023-04-03T17:23:25;8.20;1.00
3208;DHT22;1616;52.394;9.756;2023-04-03T17:25:51;8.10;1.00
3208;DHT22;1616;52.394;9.756;2023-04-03T17:28:20;8.00;1.00
3208;DHT22;1616;52.394;9.756;2023-04-03T17:30:47;8.00;1.00
3208;DHT22;1616;52.394;9.756;2023-04-03T17:33:13;7.80;1.00
3208;DHT22;1616;52.394;9.756;2023-04-03T17:35:39;7.70;1.00
3208;DHT22;1616;52.394;9.756;2023-04-03T17:38:04;7.60;1.00
3208;DHT22;1616;52.394;9.756;2023-04-03T17:40:30;7.60;1.00
3208;DHT22;1616;52.394;9.756;2023-04-03T17:42:56;7.40;1.00
3208;DHT22;1616;52.394;9.756;2023-04-03T17:45:22;7.50;1.00
3208;DHT22;1616;52.394;9.756;2023-04-03T17:47:51;7.30;1.00
3208;DHT22;1616;52.394;9.756;2023-04-03T17:50:18;7.30;1.00
3208;DHT22;1616;52.394;9.756;2023-04-03T17:52:43;7.30;1.00
3208;DHT22;1616;52.394;9.756;2023-04-03T17:55:09;7.30;1.00
3208;DHT22;1616;52.394;9.756;2023-04-03T17:57:35;7.20;1.00
3208;DHT22;1616;52.394;9.756;2023-04-03T18:00:02;7.20;1.00
3208;DHT22;1616;52.394;9.756;2023-04-03T18:02:29;7.10;1.00
3208;DHT22;1616;52.394;9.756;2023-04-03T18:04:55;7.00;1.00
3208;DHT22;1616;52.394;9.756;2023-04-03T18:07:20;7.00;1.00
3208;DHT22;1616;52.394;9.756;2023-04-03T18:09:47;6.90;1.00
3208;DHT22;1616;52.394;9.756;2023-04-03T18:12:13;6.90;1.00
3208;DHT22;1616;52.394;9.756;2023-04-03T18:14:40;6.80;1.00
3208;DHT22;1616;52.394;9.756;2023-04-03T18:17:06;6.90;1.00
3208;DHT22;1616;52.394;9.756;2023-04-03T18:19:32;6.90;1.00
3208;DHT22;1616;52.394;9.756;2023-04-03T18:22:03;6.80;1.00